Airfield :







YOU CAN JOIN US ON...

 
LOGIN :

Register | Disclaimer

   EN    FR    IT 

 









Legend :    VFR   Marginal VFR   IFR   Intensive IFR   Very Intensive IFR
Visi :
Ceiling :
>= 8 km
>= 3000ft
5 to 8 km
1000 to 3000 ft
1500m to 5 km
500 to 1000 ft
800 to 1500m
200 to 500 ft
< 800m
< 200 ft
Symbols :   Thunderstorms  Fog  Heavy snow  Heavy precipitations  Wind > 20 kt






- Airport Elevation : 461 ft
- IATA code : YYT


CYYT - St John's Int

CURRENT METAR :
  • 092100Z 25026G34KT 12SM -SHRA OVC022 02/01 A3033 RMK SC8 TCU EMBD SLP279

EXPIRED METARs :
  • 092000Z 25026G35KT 15SM FEW020 BKN120 02/M00 A3031 RMK SC2AC3 SLP273
  • 091900Z 25019G28KT 15SM FEW015 OVC040 02/M01 A3032 RMK SF1SC7 SLP276

TAF TAF CYYT
Valid from the 09 at 18:00 until the 10 at 18:00 UTC


091738Z 0918/1018 24020G30KT P6SM FEW020 BKN030 OVC080
TEMPO 0918/0924 3SM -SHRA BR BKN020 OVC080
FM100000 24015G25KT 5SM -DZ BR OVC012
FM100800 21015G25KT P6SM BKN015
BECMG 1008/1010 20020G30KT
FM101400 20025G35KT 6SM -RA BR OVC015
BECMG 1016/1018 20032G42KT RMK NXT FCST BY 100000Z



MET'MAP, your aeronautical weather chart ! - Copyright ORBIFLY December 2007 - Disclaimer

ORBIFLY MET'MAP TEAM :

Programming & Development : Alexandra Zaïnal
Concept & original design : Baudouin d'Aumeries
Assistance for programming : Marc-Olivier Méhu
Technical & hardware support : Manuel Goepfert

Contact : metmap@orbifly.com




SOURCES & CREDITS :

   NOAA